createdAt,value
2018-09-05T00:02:24.054Z,62.20
2018-09-05T00:04:52.505Z,66.53
2018-09-05T00:07:20.961Z,66.17
2018-09-05T00:09:49.399Z,67.13
2018-09-05T00:12:17.872Z,66.20
2018-09-05T00:14:46.316Z,64.67
2018-09-05T00:17:14.766Z,70.20
2018-09-05T00:19:43.271Z,68.77
2018-09-05T00:22:11.749Z,63.23
2018-09-05T00:24:40.170Z,64.23
2018-09-05T00:27:08.659Z,66.10
2018-09-05T00:29:37.142Z,68.47
2018-09-05T00:32:05.984Z,65.73
2018-09-05T00:34:34.524Z,57.47
2018-09-05T00:37:03.118Z,70.97
2018-09-05T00:39:31.700Z,68.63
2018-09-05T00:42:00.149Z,68.90
2018-09-05T00:44:28.803Z,68.97
2018-09-05T00:46:57.249Z,69.50
2018-09-05T00:49:25.673Z,65.07
2018-09-05T00:51:54.329Z,65.43
2018-09-05T00:54:22.777Z,69.33
2018-09-05T00:56:51.243Z,68.97
2018-09-05T00:59:19.731Z,65.00
2018-09-05T01:01:48.237Z,71.13
2018-09-05T01:04:16.686Z,75.50
2018-09-05T01:06:45.143Z,76.77
2018-09-05T01:09:13.576Z,75.00
2018-09-05T01:11:48.486Z,76.00
2018-09-05T01:14:16.899Z,79.73
2018-09-05T01:16:45.597Z,78.67
2018-09-05T01:19:14.104Z,68.87
2018-09-05T01:21:42.590Z,76.87
2018-09-05T01:24:11.051Z,76.13
2018-09-05T01:26:39.545Z,89.83
2018-09-05T01:29:08.078Z,87.30
2018-09-05T01:31:36.609Z,114.90
2018-09-05T01:34:05.171Z,83.07
2018-09-05T01:36:33.638Z,86.57
2018-09-05T01:39:02.077Z,80.00
2018-09-05T01:41:30.522Z,89.87
2018-09-05T01:43:59.034Z,115.43
2018-09-05T01:46:27.613Z,87.10
2018-09-05T01:48:56.125Z,76.33
2018-09-05T01:51:24.554Z,72.13
2018-09-05T01:53:52.976Z,80.20
2018-09-05T01:56:21.402Z,92.13
2018-09-05T01:58:49.866Z,73.87
2018-09-05T02:01:18.407Z,86.93
2018-09-05T02:03:46.976Z,89.10
2018-09-05T02:06:15.573Z,98.70
2018-09-05T02:08:44.109Z,103.17
2018-09-05T02:11:12.693Z,99.83
2018-09-05T02:13:41.230Z,101.97
2018-09-05T02:16:09.677Z,120.77
2018-09-05T02:18:38.168Z,100.47
2018-09-05T02:21:06.610Z,79.53
2018-09-05T02:23:35.102Z,116.47
2018-09-05T02:26:03.560Z,86.23
2018-09-05T02:28:32.086Z,80.13
2018-09-05T02:31:00.648Z,86.27
2018-09-05T02:33:29.326Z,78.07
2018-09-05T02:35:57.884Z,81.13
2018-09-05T02:38:26.342Z,90.97
2018-09-05T02:40:54.867Z,90.00
2018-09-05T02:43:28.591Z,88.77
2018-09-05T02:45:57.064Z,92.30
2018-09-05T02:48:25.595Z,93.93
2018-09-05T02:50:54.083Z,102.63
2018-09-05T02:53:22.546Z,94.40
2018-09-05T02:55:56.412Z,115.13
2018-09-05T02:58:24.949Z,110.03
2018-09-05T03:00:53.401Z,92.63
2018-09-05T03:03:21.865Z,69.80
2018-09-05T03:05:50.705Z,105.47
2018-09-05T03:08:19.293Z,104.57
2018-09-05T03:10:47.734Z,98.87
2018-09-05T03:13:16.222Z,92.10
2018-09-05T03:15:44.674Z,106.97
2018-09-05T03:18:13.233Z,103.63
2018-09-05T03:20:41.925Z,96.07
2018-09-05T03:23:10.679Z,100.20
2018-09-05T03:25:39.371Z,78.43
2018-09-05T03:28:08.573Z,84.90
2018-09-05T03:30:37.078Z,79.37
2018-09-05T03:33:05.705Z,86.90
2018-09-05T03:35:34.133Z,65.43
2018-09-05T03:38:02.703Z,77.73
2018-09-05T03:40:31.163Z,79.53
2018-09-05T03:42:59.910Z,69.27
2018-09-05T03:45:28.374Z,61.77
2018-09-05T03:47:56.842Z,75.67
2018-09-05T03:50:25.312Z,70.83
2018-09-05T03:52:53.789Z,57.47
2018-09-05T03:55:22.252Z,57.73
2018-09-05T03:57:50.887Z,62.43
2018-09-05T04:00:19.451Z,61.40
2018-09-05T04:02:48.046Z,60.57
2018-09-05T04:05:16.583Z,56.53
2018-09-05T04:07:45.117Z,55.30
2018-09-05T04:10:13.789Z,54.30
2018-09-05T04:12:42.809Z,50.37
2018-09-05T04:15:11.915Z,53.30
2018-09-05T04:17:40.420Z,49.80
2018-09-05T04:20:10.683Z,51.43
2018-09-05T04:22:39.279Z,53.63
2018-09-05T04:25:07.855Z,58.70
2018-09-05T04:27:36.317Z,55.27
2018-09-05T04:30:04.928Z,49.93
2018-09-05T04:32:33.375Z,50.53
2018-09-05T04:35:01.857Z,53.47
2018-09-05T04:37:30.297Z,48.60
2018-09-05T04:39:58.889Z,49.77
2018-09-05T04:42:27.421Z,49.13
2018-09-05T04:44:55.894Z,50.67
2018-09-05T04:47:24.325Z,50.30
2018-09-05T04:49:52.789Z,53.13
2018-09-05T04:52:21.437Z,49.60
2018-09-05T04:54:50.015Z,51.07
2018-09-05T04:57:18.509Z,55.17
2018-09-05T04:59:47.037Z,61.03
2018-09-05T05:02:15.630Z,54.90
2018-09-05T05:04:44.091Z,52.50
2018-09-05T05:07:12.543Z,54.97
2018-09-05T05:09:40.976Z,53.37
2018-09-05T05:12:09.443Z,54.43
2018-09-05T05:14:37.901Z,63.37
2018-09-05T05:17:06.480Z,59.33
2018-09-05T05:19:34.957Z,56.77
2018-09-05T05:22:03.479Z,63.87
2018-09-05T05:24:31.937Z,62.60
2018-09-05T05:27:00.591Z,63.53
2018-09-05T05:29:29.198Z,77.33
2018-09-05T05:31:57.711Z,62.63
2018-09-05T05:34:26.327Z,60.37
2018-09-05T05:36:54.928Z,58.17
2018-09-05T05:39:23.487Z,56.60
2018-09-05T05:41:52.069Z,66.20
2018-09-05T05:44:20.613Z,69.33
2018-09-05T05:46:49.131Z,68.17
2018-09-05T05:49:17.658Z,66.53
2018-09-05T05:51:46.143Z,64.53
2018-09-05T05:54:14.575Z,58.73
2018-09-05T05:56:43.132Z,68.07
2018-09-05T05:59:11.579Z,76.50
2018-09-05T06:01:40.064Z,86.23
2018-09-05T06:04:08.567Z,77.00
2018-09-05T06:06:37.045Z,81.83
2018-09-05T06:09:08.261Z,86.87
2018-09-05T06:11:36.953Z,67.67
2018-09-05T06:14:05.786Z,78.10
2018-09-05T06:16:34.251Z,93.17
2018-09-05T06:19:02.800Z,90.57
2018-09-05T06:21:31.296Z,92.80
2018-09-05T06:23:59.772Z,88.53
2018-09-05T06:26:28.317Z,95.47
2018-09-05T06:28:56.991Z,99.67
2018-09-05T06:31:25.611Z,104.80
2018-09-05T06:33:54.043Z,104.77
2018-09-05T06:36:22.513Z,109.30
2018-09-05T06:38:51.014Z,97.27
2018-09-05T06:41:19.468Z,128.20
2018-09-05T06:43:47.927Z,117.47
2018-09-05T06:46:16.401Z,128.67
2018-09-05T06:49:15.149Z,115.77
2018-09-05T06:51:43.661Z,105.10
2018-09-05T06:54:12.109Z,123.50
2018-09-05T06:56:40.598Z,129.63
2018-09-05T06:59:09.085Z,120.63
2018-09-05T07:01:37.655Z,129.17
2018-09-05T07:04:06.171Z,126.83
2018-09-05T07:06:34.751Z,118.37
2018-09-05T07:09:03.724Z,114.00
2018-09-05T07:11:32.325Z,106.20
2018-09-05T07:14:00.853Z,110.90
2018-09-05T07:16:29.360Z,99.23
2018-09-05T07:18:57.992Z,101.03
2018-09-05T07:21:26.692Z,95.90
2018-09-05T07:23:55.155Z,93.40
2018-09-05T07:26:23.608Z,92.87
2018-09-05T07:28:52.142Z,93.23
2018-09-05T07:31:20.612Z,90.53
2018-09-05T07:33:49.172Z,86.80
2018-09-05T07:36:17.655Z,85.87
2018-09-05T07:38:46.122Z,82.83
2018-09-05T07:41:14.583Z,81.57
2018-09-05T07:43:43.147Z,82.13
2018-09-05T07:46:11.555Z,78.90
2018-09-05T07:48:40.044Z,72.13
2018-09-05T07:51:08.604Z,70.57
2018-09-05T07:53:37.140Z,72.20
2018-09-05T07:56:05.777Z,69.93
2018-09-05T07:58:35.410Z,70.73
2018-09-05T08:01:03.851Z,67.33
2018-09-05T08:03:32.294Z,66.37
2018-09-05T08:06:00.751Z,62.27
2018-09-05T08:08:29.303Z,64.33
2018-09-05T08:11:04.497Z,64.53
2018-09-05T08:13:33.622Z,65.20
2018-09-05T08:16:02.079Z,62.03
2018-09-05T08:18:30.749Z,62.13
2018-09-05T08:20:59.428Z,61.17
2018-09-05T08:23:28.040Z,61.60
2018-09-05T08:25:56.490Z,61.10
2018-09-05T08:28:24.951Z,60.63
2018-09-05T08:30:53.587Z,60.67
2018-09-05T08:33:22.124Z,60.80
2018-09-05T08:35:50.979Z,60.83
2018-09-05T08:38:19.360Z,62.57
2018-09-05T08:40:47.959Z,60.40
2018-09-05T08:43:16.453Z,59.17
2018-09-05T08:45:45.331Z,59.77
2018-09-05T08:48:13.621Z,56.70
2018-09-05T08:50:42.041Z,55.57
2018-09-05T08:53:10.517Z,53.57
2018-09-05T08:55:38.949Z,54.33
2018-09-05T08:58:07.403Z,54.23
2018-09-05T09:00:35.858Z,53.93
2018-09-05T09:03:04.421Z,53.50
2018-09-05T09:05:33.137Z,52.90
2018-09-05T09:08:01.777Z,54.10
2018-09-05T09:10:30.531Z,49.13
2018-09-05T09:12:59.028Z,53.97
2018-09-05T09:15:27.712Z,52.97
2018-09-05T09:17:56.301Z,53.97
2018-09-05T09:20:24.817Z,49.93
2018-09-05T09:22:54.373Z,48.40
2018-09-05T09:25:22.847Z,50.70
2018-09-05T09:27:51.442Z,49.03
2018-09-05T09:30:19.919Z,52.70
2018-09-05T09:32:48.401Z,51.27
2018-09-05T09:35:16.948Z,51.50
2018-09-05T09:37:45.371Z,50.03
2018-09-05T09:40:13.943Z,50.33
2018-09-05T09:42:42.466Z,51.87
2018-09-05T09:45:10.927Z,52.13
2018-09-05T09:47:39.443Z,52.87
2018-09-05T09:50:07.993Z,50.23
2018-09-05T09:52:38.609Z,51.10
2018-09-05T09:55:08.996Z,50.10
2018-09-05T09:57:38.033Z,48.90
2018-09-05T10:00:07.261Z,50.43
2018-09-05T10:02:41.093Z,50.43
2018-09-05T10:05:14.779Z,49.23
2018-09-05T10:07:48.576Z,52.90
2018-09-05T10:10:22.836Z,50.73
2018-09-05T10:12:56.026Z,50.67
2018-09-05T10:16:32.637Z,51.77
2018-09-05T10:19:05.293Z,49.30
2018-09-05T10:21:33.847Z,50.07
2018-09-05T10:24:02.294Z,51.50
2018-09-05T10:26:30.805Z,50.47
2018-09-05T10:28:59.259Z,50.23
2018-09-05T10:31:27.715Z,50.23
2018-09-05T10:33:56.263Z,50.43
2018-09-05T10:36:24.796Z,51.00
2018-09-05T10:38:53.342Z,50.00
2018-09-05T10:41:21.860Z,49.43
2018-09-05T10:43:50.442Z,49.70
2018-09-05T10:46:19.063Z,48.70
2018-09-05T10:48:47.542Z,50.13
2018-09-05T10:51:16.101Z,51.20
2018-09-05T10:53:44.802Z,50.07
2018-09-05T10:56:13.293Z,49.87
2018-09-05T10:58:41.876Z,49.30
2018-09-05T11:01:10.457Z,50.80
2018-09-05T11:03:39.028Z,49.77
2018-09-05T11:06:07.507Z,50.97
2018-09-05T11:08:36.054Z,50.30
2018-09-05T11:11:04.734Z,50.17
2018-09-05T11:13:33.198Z,50.23
2018-09-05T11:16:01.710Z,50.67
2018-09-05T11:18:30.189Z,49.17
2018-09-05T11:20:58.677Z,51.30
2018-09-05T11:23:27.166Z,51.27
2018-09-05T11:25:55.659Z,53.43
2018-09-05T11:28:24.098Z,53.80
2018-09-05T11:30:52.624Z,52.70
2018-09-05T11:33:21.106Z,53.57
2018-09-05T11:35:49.562Z,54.33
2018-09-05T11:38:18.170Z,56.87
2018-09-05T11:40:46.675Z,52.37
2018-09-05T11:43:15.293Z,54.00
2018-09-05T11:45:43.768Z,58.23
2018-09-05T11:48:12.281Z,56.80
2018-09-05T11:50:40.766Z,56.27
2018-09-05T11:53:09.237Z,57.77
2018-09-05T11:55:38.872Z,58.50
2018-09-05T11:58:07.338Z,58.83
2018-09-05T12:00:35.817Z,54.57
2018-09-05T12:03:04.325Z,55.80
2018-09-05T12:05:32.792Z,54.90
2018-09-05T12:08:01.383Z,53.20
2018-09-05T12:10:29.981Z,54.53
2018-09-05T12:12:58.476Z,53.60
2018-09-05T12:15:27.225Z,55.13
2018-09-05T12:17:55.683Z,55.93
2018-09-05T12:20:24.157Z,56.77
2018-09-05T12:22:52.681Z,53.83
2018-09-05T12:25:21.323Z,55.47
2018-09-05T12:27:49.782Z,52.83
2018-09-05T12:30:18.582Z,57.63
2018-09-05T12:32:47.153Z,57.47
2018-09-05T12:35:15.688Z,58.33
2018-09-05T12:37:44.342Z,55.77
2018-09-05T12:40:12.815Z,55.13
2018-09-05T12:42:41.284Z,56.80
2018-09-05T12:45:10.031Z,58.60
2018-09-05T12:47:38.536Z,59.10
2018-09-05T12:50:07.116Z,57.40
2018-09-05T12:52:35.615Z,59.97
2018-09-05T12:55:04.307Z,56.53
2018-09-05T12:57:32.835Z,57.23
2018-09-05T13:00:01.687Z,58.40
2018-09-05T13:02:30.144Z,57.20
2018-09-05T13:04:58.657Z,58.60
2018-09-05T13:07:27.200Z,58.53
2018-09-05T13:09:55.685Z,58.97
2018-09-05T13:12:24.182Z,61.47
2018-09-05T13:14:52.666Z,60.17
2018-09-05T13:17:21.234Z,62.97
2018-09-05T13:19:49.723Z,65.03
2018-09-05T13:22:18.200Z,67.60
2018-09-05T13:24:46.713Z,58.70
2018-09-05T13:27:15.148Z,65.03
2018-09-05T13:29:43.588Z,66.63
2018-09-05T13:32:12.113Z,63.47
2018-09-05T13:34:40.603Z,62.40
2018-09-05T13:37:09.519Z,64.47
2018-09-05T13:39:38.175Z,61.97
2018-09-05T13:42:06.753Z,63.93
2018-09-05T13:44:35.245Z,64.27
2018-09-05T13:47:03.853Z,60.43
2018-09-05T13:49:32.343Z,58.97
2018-09-05T13:52:03.401Z,60.27
2018-09-05T13:54:33.073Z,57.70
2018-09-05T13:57:02.007Z,57.47
2018-09-05T13:59:31.079Z,57.53
2018-09-05T14:01:59.619Z,57.03
2018-09-05T14:04:28.149Z,56.53
2018-09-05T14:06:56.726Z,55.60
2018-09-05T14:09:25.182Z,52.70
2018-09-05T14:11:53.771Z,52.53
2018-09-05T14:14:22.246Z,52.57
2018-09-05T14:16:50.752Z,55.83
2018-09-05T14:19:19.212Z,54.00
2018-09-05T14:21:47.760Z,46.90
2018-09-05T14:24:16.362Z,49.50
2018-09-05T14:26:44.880Z,47.80
2018-09-05T14:29:13.454Z,48.63
2018-09-05T14:31:41.969Z,44.43
2018-09-05T14:34:12.192Z,42.67
2018-09-05T14:36:40.715Z,44.30
2018-09-05T14:39:11.938Z,48.00
2018-09-05T14:41:40.432Z,49.73
2018-09-05T14:44:09.013Z,46.30
2018-09-05T14:46:37.622Z,45.53
2018-09-05T14:49:06.247Z,48.03
2018-09-05T14:51:34.848Z,47.10
2018-09-05T14:54:03.471Z,46.27
2018-09-05T14:56:32.005Z,44.50
2018-09-05T14:59:00.614Z,46.40
2018-09-05T15:01:29.402Z,45.17
2018-09-05T15:03:58.014Z,44.30
2018-09-05T15:06:26.560Z,45.87
2018-09-05T15:08:55.150Z,42.80
2018-09-05T15:11:23.750Z,43.97
2018-09-05T15:13:52.424Z,43.07
2018-09-05T15:16:21.118Z,43.73
2018-09-05T15:18:49.617Z,44.67
2018-09-05T15:21:18.193Z,44.50
2018-09-05T15:23:49.810Z,43.13
2018-09-05T15:26:18.992Z,43.10
2018-09-05T15:28:47.496Z,42.33
2018-09-05T15:31:16.206Z,38.87
2018-09-05T15:33:44.715Z,37.67
2018-09-05T15:36:13.180Z,39.23
2018-09-05T15:38:41.779Z,37.90
2018-09-05T15:41:10.263Z,38.27
2018-09-05T15:43:38.805Z,41.43
2018-09-05T15:46:07.307Z,41.37
2018-09-05T15:48:35.868Z,39.87
2018-09-05T15:51:04.489Z,39.37
2018-09-05T15:53:32.985Z,39.97
2018-09-05T15:56:01.485Z,39.13
2018-09-05T15:58:29.980Z,38.50
2018-09-05T16:00:58.599Z,40.73
2018-09-05T16:03:27.293Z,39.70
2018-09-05T16:05:55.792Z,40.07
2018-09-05T16:08:24.329Z,38.47
2018-09-05T16:10:52.797Z,37.67
2018-09-05T16:13:21.349Z,36.60
2018-09-05T16:15:49.835Z,39.23
2018-09-05T16:18:18.310Z,37.33
2018-09-05T16:20:46.933Z,35.90
2018-09-05T16:23:15.487Z,36.27
2018-09-05T16:25:44.021Z,35.90
2018-09-05T16:28:12.611Z,35.57
2018-09-05T16:30:41.673Z,34.87
2018-09-05T16:33:10.151Z,35.50
2018-09-05T16:35:38.685Z,33.63
2018-09-05T16:38:07.279Z,32.57
2018-09-05T16:40:35.778Z,31.80
2018-09-05T16:43:04.460Z,31.23
2018-09-05T16:45:33.015Z,31.93
2018-09-05T16:48:01.603Z,30.33
2018-09-05T16:50:30.289Z,32.77
2018-09-05T16:52:58.905Z,33.00
2018-09-05T16:55:27.369Z,34.20
2018-09-05T16:57:55.899Z,32.83
2018-09-05T17:00:24.375Z,32.43
2018-09-05T17:02:52.831Z,32.50
2018-09-05T17:05:21.362Z,31.93
2018-09-05T17:07:49.954Z,34.27
2018-09-05T17:10:18.547Z,33.20
2018-09-05T17:12:47.019Z,30.60
2018-09-05T17:15:15.627Z,30.83
2018-09-05T17:17:44.204Z,32.77
2018-09-05T17:20:12.681Z,33.10
2018-09-05T17:22:41.255Z,31.07
2018-09-05T17:25:09.881Z,32.43
2018-09-05T17:27:38.362Z,30.80
2018-09-05T17:30:06.904Z,30.60
2018-09-05T17:32:35.373Z,30.80
2018-09-05T17:35:04.159Z,29.50
2018-09-05T17:37:32.584Z,32.43
2018-09-05T17:40:01.222Z,29.63
2018-09-05T17:42:29.708Z,31.07
2018-09-05T17:44:58.239Z,30.60
2018-09-05T17:47:26.710Z,33.37
2018-09-05T17:49:55.274Z,33.17
2018-09-05T17:52:23.859Z,33.53
2018-09-05T17:54:52.450Z,34.10
2018-09-05T17:57:21.256Z,32.90
2018-09-05T17:59:49.944Z,32.67
2018-09-05T18:02:18.476Z,33.53
2018-09-05T18:04:47.013Z,33.23
2018-09-05T18:07:15.606Z,33.93
2018-09-05T18:09:44.143Z,32.77
2018-09-05T18:12:12.726Z,31.97
2018-09-05T18:14:41.278Z,33.70
2018-09-05T18:17:10.020Z,32.70
2018-09-05T18:19:38.608Z,30.70
2018-09-05T18:22:07.113Z,29.80
2018-09-05T18:24:35.616Z,32.63
2018-09-05T18:27:04.114Z,32.50
2018-09-05T18:29:32.711Z,34.37
2018-09-05T18:32:01.210Z,30.77
2018-09-05T18:34:29.720Z,32.53
2018-09-05T18:36:58.284Z,31.67
2018-09-05T18:39:26.871Z,30.43
2018-09-05T18:41:55.462Z,31.63
2018-09-05T18:44:23.948Z,32.33
2018-09-05T18:46:52.548Z,30.50
2018-09-05T18:49:21.560Z,31.50
2018-09-05T18:51:50.129Z,28.80
2018-09-05T18:54:18.704Z,29.03
2018-09-05T18:56:47.280Z,29.33
2018-09-05T18:59:15.813Z,30.47
2018-09-05T19:01:44.284Z,30.33
2018-09-05T19:04:12.766Z,30.13
2018-09-05T19:06:41.236Z,29.23
2018-09-05T19:09:11.455Z,29.93
2018-09-05T19:11:40.438Z,31.70
2018-09-05T19:14:10.162Z,32.43
2018-09-05T19:16:38.670Z,32.63
2018-09-05T19:19:07.232Z,31.80
2018-09-05T19:21:35.698Z,35.30
2018-09-05T19:24:04.209Z,34.97
2018-09-05T19:26:32.777Z,36.53
2018-09-05T19:29:01.723Z,39.50
2018-09-05T19:31:30.368Z,41.83
2018-09-05T19:33:58.893Z,43.67
2018-09-05T19:36:27.403Z,43.10
2018-09-05T19:38:55.903Z,45.07
2018-09-05T19:41:24.529Z,45.57
2018-09-05T19:43:53.102Z,44.03
2018-09-05T19:46:21.670Z,42.43
2018-09-05T19:48:50.331Z,34.77
2018-09-05T19:51:18.796Z,32.03
2018-09-05T19:53:47.377Z,24.60
2018-09-05T19:56:16.322Z,21.23
2018-09-05T19:58:44.802Z,15.60
2018-09-05T20:01:13.337Z,14.60
2018-09-05T20:03:41.818Z,13.67
2018-09-05T20:06:10.420Z,10.90
2018-09-05T20:08:38.890Z,6.10
2018-09-05T20:11:07.442Z,5.63
2018-09-05T20:13:36.093Z,5.00
2018-09-05T20:16:04.924Z,4.50
2018-09-05T20:18:36.934Z,4.17
2018-09-05T20:21:05.475Z,4.17
2018-09-05T20:23:33.995Z,4.50
2018-09-05T20:26:02.680Z,4.20
2018-09-05T20:28:32.530Z,5.27
2018-09-05T20:31:01.066Z,7.27
2018-09-05T20:33:29.599Z,14.00
2018-09-05T20:35:58.125Z,15.57
2018-09-05T20:38:26.582Z,25.40
2018-09-05T20:40:55.059Z,27.07
2018-09-05T20:43:23.499Z,28.27
2018-09-05T20:45:52.070Z,25.53
2018-09-05T20:48:20.525Z,29.07
2018-09-05T20:50:49.101Z,30.67
2018-09-05T20:53:17.607Z,30.10
2018-09-05T20:55:46.088Z,31.47
2018-09-05T20:58:14.576Z,29.20
2018-09-05T21:00:43.112Z,35.47
2018-09-05T21:03:11.572Z,37.90
2018-09-05T21:05:40.094Z,37.37
2018-09-05T21:08:08.628Z,37.50
2018-09-05T21:10:37.125Z,39.87
2018-09-05T21:13:05.675Z,48.83
2018-09-05T21:15:34.256Z,56.33
2018-09-05T21:18:02.762Z,58.37
2018-09-05T21:20:31.284Z,66.03
2018-09-05T21:22:59.745Z,58.37
2018-09-05T21:25:28.306Z,69.83
2018-09-05T21:27:56.870Z,73.33
2018-09-05T21:30:25.328Z,59.77
2018-09-05T21:32:53.798Z,57.27
2018-09-05T21:35:22.252Z,63.93
2018-09-05T21:37:50.676Z,55.57
2018-09-05T21:40:19.143Z,41.67
2018-09-05T21:42:47.691Z,53.27
2018-09-05T21:45:16.146Z,47.90
2018-09-05T21:47:44.626Z,48.27
2018-09-05T21:50:13.087Z,60.17
2018-09-05T21:52:41.736Z,67.03
2018-09-05T21:55:10.234Z,69.03
2018-09-05T21:57:38.982Z,68.40
2018-09-05T22:00:08.981Z,64.33
2018-09-05T22:02:37.481Z,67.67
2018-09-05T22:05:06.080Z,69.30
2018-09-05T22:07:34.596Z,61.63
2018-09-05T22:10:03.114Z,60.33
2018-09-05T22:12:31.672Z,47.33
2018-09-05T22:15:00.121Z,47.77
2018-09-05T22:17:28.617Z,59.10
2018-09-05T22:19:57.116Z,62.40
2018-09-05T22:22:25.581Z,82.03
2018-09-05T22:24:54.250Z,43.63
2018-09-05T22:27:22.738Z,64.20
2018-09-05T22:29:51.297Z,55.53
2018-09-05T22:32:19.854Z,64.40
2018-09-05T22:34:48.372Z,65.03
2018-09-05T22:37:16.930Z,52.23
2018-09-05T22:39:45.509Z,56.23
2018-09-05T22:42:14.316Z,46.07
2018-09-05T22:44:55.665Z,52.63
2018-09-05T22:47:37.387Z,56.33
2018-09-05T22:51:51.290Z,59.17
2018-09-05T22:55:07.425Z,57.70
2018-09-05T22:57:54.067Z,59.23
2018-09-05T23:01:39.257Z,55.10
2018-09-05T23:04:19.819Z,55.63
2018-09-05T23:07:00.759Z,43.77
2018-09-05T23:10:43.697Z,22.57
2018-09-05T23:13:23.329Z,28.33
2018-09-05T23:16:03.077Z,33.40
2018-09-05T23:18:43.455Z,20.10
2018-09-05T23:21:18.291Z,29.07
2018-09-05T23:24:05.896Z,24.70
2018-09-05T23:26:34.431Z,30.13
2018-09-05T23:29:02.863Z,37.43
2018-09-05T23:31:31.578Z,39.00
2018-09-05T23:34:00.020Z,33.17
2018-09-05T23:36:28.519Z,35.27
2018-09-05T23:38:57.092Z,38.03
2018-09-05T23:41:25.562Z,42.80
2018-09-05T23:43:54.158Z,38.50
2018-09-05T23:46:22.749Z,35.53
2018-09-05T23:48:51.341Z,37.43
2018-09-05T23:51:19.778Z,34.33
2018-09-05T23:53:48.320Z,34.73
2018-09-05T23:56:16.909Z,31.53
2018-09-05T23:58:45.463Z,38.53
